Maniwaki, Canada
Current Conditions -  °F | °C
As of 12:00 PM on Saturday 22 Nov 2014 (Local Time) from CYND Reporting Station
Overcast Overcast  
Wind Chill: 24°   Ceiling: 5000
Heat Index: 34°   Visibility: 15mi
Dew Point: 23°   Wind: 14mph
Humidity: 65%   Direction: 230°SW
Pressure: 29.97"   Gusts: 23mph
Location:  46.37°N, 75.98°W
Report Text: CYND 221700Z 23012G20KT 15SM BKN050 OVC120 01/M05 A2997 RMK SC5AC3 SLP153
Loading
Personal Weather Stations






























Interactive Weather Map New forecast layout! Learn more

10-Day Weather Forecast

Advertisements
Track Severe Weather on mobile